createdAt,value
2018-04-24T00:01:22.021Z,1.30
2018-04-24T00:03:49.106Z,1.20
2018-04-24T00:06:16.632Z,1.20
2018-04-24T00:11:19.667Z,1.13
2018-04-24T00:13:48.435Z,1.13
2018-04-24T00:16:15.844Z,1.00
2018-04-24T00:18:49.037Z,1.00
2018-04-24T00:21:16.971Z,1.00
2018-04-24T00:23:44.074Z,1.00
2018-04-24T00:26:12.001Z,0.90
2018-04-24T00:28:40.009Z,1.20
2018-04-24T00:31:08.062Z,0.83
2018-04-24T00:33:35.119Z,0.93
2018-04-24T00:41:12.831Z,1.10
2018-04-24T00:46:19.853Z,1.27
2018-04-24T00:51:26.993Z,0.82
2018-04-24T00:56:35.135Z,1.25
2018-04-24T00:59:03.123Z,1.27
2018-04-24T01:01:31.019Z,0.90
2018-04-24T01:14:42.834Z,1.10
2018-04-24T01:28:07.880Z,1.67
2018-04-24T01:30:36.349Z,1.53
2018-04-24T01:35:43.597Z,1.30
2018-04-24T01:38:16.498Z,1.10
2018-04-24T01:43:24.601Z,1.10
2018-04-24T01:45:57.580Z,1.07
2018-04-24T01:48:25.995Z,1.57
2018-04-24T01:50:53.270Z,1.60
2018-04-24T01:53:21.653Z,1.47
2018-04-24T01:55:52.657Z,1.57
2018-04-24T01:58:20.665Z,1.70
2018-04-24T02:00:47.783Z,1.50
2018-04-24T02:03:14.838Z,1.77
2018-04-24T02:05:42.612Z,1.67
2018-04-24T02:10:44.401Z,1.83
2018-04-24T02:18:40.410Z,2.53
2018-04-24T02:21:11.428Z,2.13
2018-04-24T02:23:41.293Z,2.07
2018-04-24T02:26:08.347Z,2.17
2018-04-24T02:31:27.719Z,2.80
2018-04-24T02:34:01.979Z,2.10
2018-04-24T02:36:32.670Z,2.00
2018-04-24T02:41:46.904Z,2.83
2018-04-24T02:44:21.049Z,2.70
2018-04-24T02:46:54.969Z,2.87
2018-04-24T03:06:10.312Z,2.30
2018-04-24T03:08:55.625Z,2.00
2018-04-24T03:14:13.775Z,2.40
2018-04-24T03:16:44.128Z,2.57
2018-04-24T03:19:15.548Z,2.30
2018-04-24T03:21:44.779Z,2.30
2018-04-24T03:24:11.819Z,2.70
2018-04-24T03:29:20.456Z,3.37
2018-04-24T03:37:11.295Z,3.62
2018-04-24T03:45:18.356Z,4.17
2018-04-24T03:47:46.104Z,4.10
2018-04-24T03:50:13.761Z,4.03
2018-04-24T03:52:41.364Z,3.70
2018-04-24T03:55:09.366Z,3.73
2018-04-24T03:57:36.400Z,3.30
2018-04-24T04:00:04.390Z,3.10
2018-04-24T04:05:14.418Z,4.00
2018-04-24T04:07:44.040Z,3.50
2018-04-24T04:10:13.981Z,3.30
2018-04-24T04:18:06.798Z,4.65
2018-04-24T04:20:45.704Z,4.07
2018-04-24T04:23:25.092Z,3.90
2018-04-24T04:25:52.138Z,3.80
2018-04-24T04:28:20.617Z,4.20
2018-04-24T04:30:48.666Z,4.07
2018-04-24T04:33:16.033Z,3.80
2018-04-24T04:35:46.269Z,4.17
2018-04-24T04:38:13.334Z,4.07
2018-04-24T04:40:41.395Z,3.90
2018-04-24T04:43:09.248Z,3.63
2018-04-24T04:45:36.313Z,3.37
2018-04-24T04:48:03.806Z,3.50
2018-04-24T04:50:30.809Z,3.33
2018-04-24T04:52:57.879Z,3.27
2018-04-24T04:55:25.528Z,3.43
2018-04-24T04:57:53.582Z,3.83
2018-04-24T05:00:21.588Z,3.70
2018-04-24T05:05:30.204Z,4.80
2018-04-24T05:08:06.469Z,4.53
2018-04-24T05:10:33.922Z,4.80
2018-04-24T05:13:01.511Z,4.90
2018-04-24T05:15:28.979Z,4.27
2018-04-24T05:23:21.589Z,5.65
2018-04-24T05:25:48.662Z,4.93
2018-04-24T05:28:15.737Z,4.40
2018-04-24T05:30:51.023Z,4.87
2018-04-24T05:39:21.724Z,4.37
2018-04-24T05:41:49.215Z,4.30
2018-04-24T05:44:16.270Z,3.60
2018-04-24T05:49:23.441Z,3.47
2018-04-24T05:51:57.741Z,3.23
2018-04-24T05:54:24.768Z,3.67
2018-04-24T05:56:52.073Z,3.87
2018-04-24T05:59:21.032Z,4.57
2018-04-24T06:01:48.077Z,4.10
2018-04-24T06:06:53.788Z,4.30
2018-04-24T06:09:21.786Z,3.87
2018-04-24T06:11:50.773Z,4.00
2018-04-24T06:19:54.047Z,3.47
2018-04-24T06:25:02.593Z,3.83
2018-04-24T06:27:31.166Z,4.07
2018-04-24T06:30:00.771Z,3.67
2018-04-24T06:32:27.997Z,3.63
2018-04-24T06:34:56.226Z,4.23
2018-04-24T06:37:24.258Z,4.07
2018-04-24T06:39:52.650Z,3.70
2018-04-24T06:42:21.267Z,4.63
2018-04-24T06:44:49.257Z,4.03
2018-04-24T06:47:18.523Z,3.93
2018-04-24T06:49:54.038Z,3.87
2018-04-24T06:52:22.063Z,4.10
2018-04-24T06:54:50.076Z,4.13
2018-04-24T06:59:56.882Z,3.25
2018-04-24T07:02:24.430Z,3.90
2018-04-24T07:04:54.404Z,3.43
2018-04-24T07:07:22.926Z,2.83
2018-04-24T07:09:50.926Z,3.70
2018-04-24T07:12:17.990Z,2.90
2018-04-24T07:14:45.978Z,3.37
2018-04-24T07:17:13.001Z,3.90
2018-04-24T07:19:40.507Z,3.13
2018-04-24T07:22:07.575Z,3.27
2018-04-24T07:24:34.601Z,3.30
2018-04-24T07:27:02.487Z,3.50
2018-04-24T07:29:29.535Z,3.40
2018-04-24T07:31:57.391Z,3.17
2018-04-24T07:34:25.278Z,3.77
2018-04-24T07:36:53.331Z,3.00
2018-04-24T07:39:21.307Z,3.37
2018-04-24T07:41:48.333Z,3.60
2018-04-24T07:44:15.526Z,2.87
2018-04-24T07:46:43.913Z,3.23
2018-04-24T07:49:09.827Z,3.13
2018-04-24T07:54:08.023Z,2.93
2018-04-24T07:56:35.054Z,3.13
2018-04-24T07:59:02.121Z,3.33
2018-04-24T08:01:29.144Z,2.63
2018-04-24T08:03:56.983Z,2.43
2018-04-24T08:06:24.487Z,2.33
2018-04-24T08:08:52.326Z,2.40
2018-04-24T08:11:19.357Z,2.13
2018-04-24T08:13:46.406Z,2.27
2018-04-24T08:16:13.433Z,2.10
2018-04-24T08:18:40.452Z,2.03
2018-04-24T08:21:07.500Z,2.13
2018-04-24T08:26:14.038Z,2.72
2018-04-24T08:28:41.056Z,2.60
2018-04-24T08:31:08.084Z,2.50
2018-04-24T08:33:35.139Z,3.10
2018-04-24T08:36:02.148Z,2.47
2018-04-24T08:38:29.176Z,2.10
2018-04-24T08:40:57.059Z,1.83
2018-04-24T08:43:24.104Z,2.33
2018-04-24T08:46:02.417Z,2.20
2018-04-24T08:48:28.146Z,2.10
2018-04-24T08:50:56.130Z,2.43
2018-04-24T08:53:23.287Z,2.17
2018-04-24T08:55:51.338Z,2.10
2018-04-24T08:58:18.348Z,2.00
2018-04-24T09:00:45.416Z,1.67
2018-04-24T09:03:13.389Z,1.23
2018-04-24T09:05:40.733Z,1.50
2018-04-24T09:08:07.801Z,1.60
2018-04-24T09:10:35.134Z,1.40
2018-04-24T09:13:03.112Z,1.50
2018-04-24T09:15:30.161Z,1.47
2018-04-24T09:17:57.176Z,1.70
2018-04-24T09:20:24.186Z,1.43
2018-04-24T09:22:51.242Z,2.10
2018-04-24T09:25:18.319Z,1.70
2018-04-24T09:27:45.327Z,1.60
2018-04-24T09:30:12.369Z,1.73
2018-04-24T09:32:43.123Z,2.00
2018-04-24T09:35:10.164Z,1.70
2018-04-24T09:37:37.628Z,1.67
2018-04-24T09:42:43.654Z,1.47
2018-04-24T09:45:13.811Z,1.80
2018-04-24T09:47:40.573Z,1.70
2018-04-24T09:50:08.486Z,2.50
2018-04-24T09:52:35.491Z,2.50
2018-04-24T09:55:02.875Z,2.10
2018-04-24T09:57:30.007Z,2.13
2018-04-24T09:59:57.971Z,1.57
2018-04-24T10:02:24.998Z,1.77
2018-04-24T10:04:52.044Z,3.27
2018-04-24T10:07:19.069Z,2.80
2018-04-24T10:09:46.096Z,2.77
2018-04-24T10:12:13.998Z,2.03
2018-04-24T10:14:41.007Z,2.20
2018-04-24T10:17:08.026Z,2.23
2018-04-24T10:19:35.924Z,2.43
2018-04-24T10:22:02.937Z,2.30
2018-04-24T10:24:29.949Z,2.03
2018-04-24T10:26:57.004Z,2.50
2018-04-24T10:29:24.842Z,2.00
2018-04-24T10:31:51.895Z,2.20
2018-04-24T10:34:19.828Z,1.60
2018-04-24T10:36:47.794Z,2.40
2018-04-24T10:39:15.756Z,2.00
2018-04-24T10:41:43.815Z,1.70
2018-04-24T10:44:11.778Z,1.70
2018-04-24T10:46:38.797Z,1.37
2018-04-24T10:49:05.841Z,1.47
2018-04-24T10:51:32.909Z,1.73
2018-04-24T10:54:00.765Z,2.00
2018-04-24T10:56:27.820Z,2.33
2018-04-24T10:58:54.847Z,1.80
2018-04-24T11:01:21.860Z,1.40
2018-04-24T11:03:49.883Z,1.33
2018-04-24T11:08:57.439Z,1.40
2018-04-24T11:11:24.470Z,1.10
2018-04-24T11:13:51.966Z,1.47
2018-04-24T11:16:20.603Z,1.70
2018-04-24T11:18:49.069Z,1.20
2018-04-24T11:21:16.156Z,1.73
2018-04-24T11:23:43.258Z,1.30
2018-04-24T11:26:10.351Z,1.20
2018-04-24T11:28:37.371Z,1.10
2018-04-24T11:31:04.431Z,1.40
2018-04-24T11:33:31.455Z,1.20
2018-04-24T11:35:58.477Z,1.30
2018-04-24T11:38:25.516Z,0.90
2018-04-24T11:40:54.420Z,1.27
2018-04-24T11:43:22.904Z,1.23
2018-04-24T11:45:50.815Z,1.10
2018-04-24T11:48:17.827Z,1.10
2018-04-24T11:50:44.841Z,1.30
2018-04-24T11:53:11.907Z,1.13
2018-04-24T11:55:39.859Z,2.40
2018-04-24T11:58:08.246Z,1.17
2018-04-24T12:00:35.747Z,0.90
2018-04-24T12:03:03.705Z,0.90
2018-04-24T12:05:30.736Z,0.87
2018-04-24T12:07:57.797Z,0.90
2018-04-24T12:10:25.709Z,0.80
2018-04-24T12:12:53.450Z,1.20
2018-04-24T12:15:20.528Z,0.90
2018-04-24T12:17:47.549Z,1.03
2018-04-24T12:20:15.407Z,0.80
2018-04-24T12:22:42.479Z,0.87
2018-04-24T12:25:09.484Z,1.07
2018-04-24T12:27:37.687Z,1.13
2018-04-24T12:30:05.550Z,0.83
2018-04-24T12:32:32.569Z,1.00
2018-04-24T12:37:38.971Z,0.90
2018-04-24T12:40:06.981Z,1.00
2018-04-24T12:42:34.087Z,1.00
2018-04-24T12:45:01.977Z,0.93
2018-04-24T12:47:29.939Z,0.90
2018-04-24T12:49:57.796Z,0.80
2018-04-24T12:52:25.674Z,0.70
2018-04-24T12:54:53.636Z,1.40
2018-04-24T12:57:20.644Z,0.60
2018-04-24T12:59:47.693Z,0.80
2018-04-24T13:02:14.694Z,0.90
2018-04-24T13:04:41.828Z,1.10
2018-04-24T13:07:08.843Z,1.00
2018-04-24T13:09:35.863Z,0.97
2018-04-24T13:12:02.886Z,1.10
2018-04-24T13:14:29.943Z,1.00
2018-04-24T13:16:56.997Z,0.90
2018-04-24T13:19:24.958Z,0.90
2018-04-24T13:21:52.002Z,1.00
2018-04-24T13:24:19.756Z,1.23
2018-04-24T13:26:47.716Z,0.90
2018-04-24T13:29:15.100Z,0.80
2018-04-24T13:31:43.082Z,1.00
2018-04-24T13:34:10.110Z,0.93
2018-04-24T13:36:37.141Z,0.70
2018-04-24T13:41:43.896Z,0.90
2018-04-24T13:44:11.854Z,1.00
2018-04-24T13:46:38.877Z,1.17
2018-04-24T13:49:06.754Z,0.77
2018-04-24T13:51:33.794Z,0.67
2018-04-24T13:54:01.115Z,1.10
2018-04-24T13:56:28.205Z,1.13
2018-04-24T13:58:55.689Z,0.83
2018-04-24T14:01:22.779Z,1.23
2018-04-24T14:03:50.647Z,1.03
2018-04-24T14:06:18.264Z,1.10
2018-04-24T14:08:45.189Z,0.90
2018-04-24T14:11:12.239Z,1.10
2018-04-24T14:13:39.279Z,0.80
2018-04-24T14:16:07.119Z,0.90
2018-04-24T14:21:05.314Z,1.10
2018-04-24T14:23:32.326Z,1.10
2018-04-24T14:25:59.376Z,0.93
2018-04-24T14:28:26.398Z,1.10
2018-04-24T14:33:32.126Z,1.00
2018-04-24T14:35:59.160Z,0.90
2018-04-24T14:38:26.175Z,1.30
2018-04-24T14:40:54.219Z,0.93
2018-04-24T14:43:21.217Z,1.00
2018-04-24T14:45:49.108Z,1.00
2018-04-24T14:48:16.164Z,1.00
2018-04-24T14:50:44.218Z,1.07
2018-04-24T14:53:11.669Z,1.13
2018-04-24T14:55:38.738Z,1.40
2018-04-24T14:58:06.606Z,1.47
2018-04-24T15:00:33.627Z,1.30
2018-04-24T15:03:00.662Z,1.23
2018-04-24T15:05:28.572Z,1.77
2018-04-24T15:07:56.556Z,1.10
2018-04-24T15:10:23.614Z,1.40
2018-04-24T15:12:50.645Z,1.07
2018-04-24T15:15:17.655Z,1.40
2018-04-24T15:17:45.589Z,1.43
2018-04-24T15:20:12.600Z,1.07
2018-04-24T15:22:39.626Z,1.30
2018-04-24T15:25:07.530Z,1.03
2018-04-24T15:27:34.541Z,1.50
2018-04-24T15:30:02.537Z,1.50
2018-04-24T15:32:30.395Z,1.50
2018-04-24T15:34:58.261Z,1.30
2018-04-24T15:37:26.223Z,1.60
2018-04-24T15:39:54.217Z,1.30
2018-04-24T15:42:21.249Z,1.27
2018-04-24T15:44:49.218Z,1.37
2018-04-24T15:47:17.117Z,1.13
2018-04-24T15:49:45.084Z,1.40
2018-04-24T15:52:12.097Z,1.00
2018-04-24T15:57:18.592Z,1.40
2018-04-24T15:59:45.643Z,1.30
2018-04-24T16:02:13.613Z,1.17
2018-04-24T16:04:40.624Z,1.67
2018-04-24T16:07:07.691Z,1.10
2018-04-24T16:09:34.936Z,1.03
2018-04-24T16:12:02.718Z,1.13
2018-04-24T16:14:31.248Z,1.10
2018-04-24T16:16:59.220Z,1.20
2018-04-24T16:19:26.421Z,0.97
2018-04-24T16:21:53.306Z,1.60
2018-04-24T16:24:20.392Z,1.00
2018-04-24T16:26:47.383Z,1.00
2018-04-24T16:29:14.433Z,1.10
2018-04-24T16:31:41.456Z,1.07
2018-04-24T16:34:08.481Z,1.10
2018-04-24T16:36:35.945Z,1.10
2018-04-24T16:39:02.942Z,1.10
2018-04-24T16:41:30.024Z,1.77
2018-04-24T16:43:57.068Z,1.43
2018-04-24T16:46:24.170Z,1.40
2018-04-24T16:48:51.726Z,1.47
2018-04-24T16:54:01.192Z,1.60
2018-04-24T16:56:28.233Z,1.33
2018-04-24T16:58:55.243Z,1.53
2018-04-24T17:04:06.628Z,1.63
2018-04-24T17:06:33.646Z,1.60
2018-04-24T17:09:01.059Z,1.20
2018-04-24T17:11:28.141Z,1.87
2018-04-24T17:13:56.190Z,1.67
2018-04-24T17:16:23.195Z,1.40
2018-04-24T17:18:51.829Z,2.37
2018-04-24T17:21:21.717Z,1.27
2018-04-24T17:23:47.614Z,1.47
2018-04-24T17:26:14.666Z,1.77
2018-04-24T17:28:41.709Z,1.67
2018-04-24T17:31:08.703Z,1.60
2018-04-24T17:33:35.751Z,2.50
2018-04-24T17:36:03.073Z,1.60
2018-04-24T17:38:30.636Z,1.80
2018-04-24T17:40:57.768Z,2.10
2018-04-24T17:43:24.754Z,1.70
2018-04-24T17:45:51.752Z,2.10
2018-04-24T17:48:18.790Z,1.80
2018-04-24T17:50:45.776Z,2.00
2018-04-24T17:53:13.591Z,1.80
2018-04-24T17:55:42.670Z,2.10
2018-04-24T17:58:10.888Z,2.07
2018-04-24T18:00:38.243Z,1.73
2018-04-24T18:03:05.374Z,1.90
2018-04-24T18:05:32.367Z,1.80
2018-04-24T18:07:59.363Z,1.50
2018-04-24T18:10:26.417Z,1.50
2018-04-24T18:12:53.425Z,1.53
2018-04-24T18:15:20.437Z,1.90
2018-04-24T18:17:48.423Z,1.77
2018-04-24T18:20:15.941Z,1.47
2018-04-24T18:22:42.963Z,1.47
2018-04-24T18:25:09.997Z,1.63
2018-04-24T18:27:37.004Z,1.73
2018-04-24T18:32:43.207Z,2.03
2018-04-24T18:35:10.218Z,1.67
2018-04-24T18:37:37.220Z,1.83
2018-04-24T18:40:04.241Z,1.77
2018-04-24T18:42:32.095Z,2.20
2018-04-24T18:44:59.203Z,2.00
2018-04-24T18:47:26.251Z,2.10
2018-04-24T18:49:53.183Z,1.63
2018-04-24T18:52:20.209Z,1.67
2018-04-24T18:54:47.240Z,1.73
2018-04-24T18:57:15.141Z,2.27
2018-04-24T18:59:42.126Z,1.77
2018-04-24T19:02:09.211Z,2.00
2018-04-24T19:04:36.696Z,1.80
2018-04-24T19:07:03.690Z,1.87
2018-04-24T19:09:30.740Z,2.30
2018-04-24T19:11:57.741Z,1.90
2018-04-24T19:14:24.749Z,1.50
2018-04-24T19:16:51.811Z,2.47
2018-04-24T19:19:18.831Z,2.20
2018-04-24T19:21:45.826Z,2.40
2018-04-24T19:24:12.946Z,2.20
2018-04-24T19:26:39.926Z,2.30
2018-04-24T19:29:06.922Z,2.00
2018-04-24T19:31:33.950Z,2.00
2018-04-24T19:34:00.946Z,2.03
2018-04-24T19:36:28.017Z,2.37
2018-04-24T19:38:55.065Z,1.90
2018-04-24T19:41:22.054Z,1.57
2018-04-24T19:43:49.052Z,2.27
2018-04-24T19:46:16.084Z,1.80
2018-04-24T19:48:43.182Z,1.57
2018-04-24T19:53:48.881Z,1.95
2018-04-24T19:56:15.847Z,1.90
2018-04-24T19:58:42.903Z,1.70
2018-04-24T20:01:09.822Z,1.83
2018-04-24T20:03:36.807Z,1.70
2018-04-24T20:06:03.792Z,1.93
2018-04-24T20:08:30.802Z,2.33
2018-04-24T20:10:57.782Z,2.10
2018-04-24T20:13:24.764Z,2.63
2018-04-24T20:15:51.820Z,2.33
2018-04-24T20:18:20.014Z,2.37
2018-04-24T20:20:46.990Z,2.13
2018-04-24T20:23:14.012Z,2.03
2018-04-24T20:25:41.020Z,2.33
2018-04-24T20:28:08.019Z,1.90
2018-04-24T20:30:35.036Z,2.30
2018-04-24T20:33:02.019Z,2.00
2018-04-24T20:35:29.004Z,2.07
2018-04-24T20:37:56.033Z,2.07
2018-04-24T20:40:23.142Z,2.70
2018-04-24T20:42:50.127Z,2.23
2018-04-24T20:45:17.581Z,2.43
2018-04-24T20:47:44.590Z,2.47
2018-04-24T20:50:11.582Z,2.57
2018-04-24T20:52:38.607Z,2.30
2018-04-24T20:55:05.674Z,2.57
2018-04-24T20:57:32.656Z,2.17
2018-04-24T20:59:59.690Z,1.90
2018-04-24T21:02:26.683Z,2.37
2018-04-24T21:04:53.871Z,2.00
2018-04-24T21:07:20.858Z,2.10
2018-04-24T21:09:47.847Z,2.80
2018-04-24T21:12:14.845Z,1.93
2018-04-24T21:14:41.869Z,1.70
2018-04-24T21:19:47.355Z,2.10
2018-04-24T21:22:14.335Z,2.50
2018-04-24T21:24:41.387Z,2.30
2018-04-24T21:27:08.425Z,1.83
2018-04-24T21:29:35.425Z,2.60
2018-04-24T21:32:02.431Z,2.17
2018-04-24T21:34:29.453Z,2.00
2018-04-24T21:36:56.464Z,2.70
2018-04-24T21:39:23.479Z,2.67
2018-04-24T21:41:50.513Z,2.00
2018-04-24T21:44:17.510Z,2.50
2018-04-24T21:46:44.523Z,2.63
2018-04-24T21:49:11.573Z,2.00
2018-04-24T21:51:38.578Z,2.07
2018-04-24T21:54:05.566Z,3.00
2018-04-24T21:56:32.581Z,2.17
2018-04-24T21:58:59.561Z,2.43
2018-04-24T22:01:26.548Z,2.40
2018-04-24T22:03:53.577Z,2.53
2018-04-24T22:06:20.570Z,1.93
2018-04-24T22:08:47.547Z,2.07
2018-04-24T22:11:14.558Z,2.30
2018-04-24T22:13:41.535Z,2.23
2018-04-24T22:16:08.534Z,2.03
2018-04-24T22:18:35.606Z,2.33
2018-04-24T22:21:02.682Z,2.40
2018-04-24T22:23:29.667Z,2.40
2018-04-24T22:25:56.698Z,2.37
2018-04-24T22:28:23.784Z,2.70
2018-04-24T22:30:50.795Z,2.40
2018-04-24T22:33:17.843Z,2.50
2018-04-24T22:35:44.851Z,2.40
2018-04-24T22:38:12.728Z,2.37
2018-04-24T22:40:40.298Z,2.23
2018-04-24T22:43:07.381Z,2.77
2018-04-24T22:48:15.821Z,2.42
2018-04-24T22:50:42.674Z,2.67
2018-04-24T22:53:13.247Z,1.97
2018-04-24T22:55:40.306Z,2.47
2018-04-24T23:00:43.090Z,2.30
2018-04-24T23:03:11.487Z,2.10
2018-04-24T23:05:39.045Z,2.30
2018-04-24T23:10:56.812Z,2.20
2018-04-24T23:13:37.341Z,2.37
2018-04-24T23:16:10.738Z,2.17
2018-04-24T23:18:49.519Z,2.30
2018-04-24T23:21:16.389Z,2.10
2018-04-24T23:26:25.296Z,2.05
2018-04-24T23:31:29.856Z,2.07
2018-04-24T23:33:58.356Z,2.40
2018-04-24T23:36:25.313Z,1.90
2018-04-24T23:38:52.874Z,1.93
2018-04-24T23:41:19.937Z,2.17
2018-04-24T23:43:47.747Z,1.90
2018-04-24T23:46:15.011Z,2.60
2018-04-24T23:48:43.453Z,1.67
2018-04-24T23:51:10.953Z,2.20
2018-04-24T23:53:38.459Z,2.17
2018-04-24T23:56:05.726Z,2.57
2018-04-24T23:58:37.264Z,2.53
